createdAt,value
2019-05-28T00:01:40.297Z,4.00
2019-05-28T00:04:09.943Z,3.98
2019-05-28T00:06:39.636Z,3.92
2019-05-28T00:09:10.190Z,4.30
2019-05-28T00:11:40.040Z,3.92
2019-05-28T00:14:09.703Z,4.03
2019-05-28T00:16:39.351Z,4.03
2019-05-28T00:19:09.084Z,3.80
2019-05-28T00:21:38.737Z,4.25
2019-05-28T00:24:08.461Z,4.55
2019-05-28T00:26:40.511Z,4.45
2019-05-28T00:29:10.158Z,4.65
2019-05-28T00:31:39.860Z,3.95
2019-05-28T00:34:09.657Z,4.45
2019-05-28T00:36:39.260Z,5.00
2019-05-28T00:39:09.463Z,4.65
2019-05-28T00:41:39.334Z,4.62
2019-05-28T00:44:09.056Z,3.92
2019-05-28T00:46:38.820Z,4.35
2019-05-28T00:49:08.666Z,4.25
2019-05-28T00:51:38.683Z,4.50
2019-05-28T00:54:08.441Z,4.85
2019-05-28T00:56:38.793Z,5.20
2019-05-28T00:59:08.753Z,5.72
2019-05-28T01:01:38.469Z,5.45
2019-05-28T01:04:08.118Z,5.08
2019-05-28T01:06:37.815Z,5.17
2019-05-28T01:09:08.422Z,4.83
2019-05-28T01:11:38.124Z,5.25
2019-05-28T01:14:07.961Z,4.90
2019-05-28T01:16:37.600Z,5.78
2019-05-28T01:19:07.249Z,5.55
2019-05-28T01:21:36.910Z,5.40
2019-05-28T01:24:06.607Z,5.95
2019-05-28T01:26:36.249Z,5.62
2019-05-28T01:29:05.911Z,6.37
2019-05-28T01:31:35.633Z,6.12
2019-05-28T01:34:08.182Z,5.25
2019-05-28T01:36:37.847Z,6.22
2019-05-28T01:39:08.249Z,5.70
2019-05-28T01:41:37.971Z,5.45
2019-05-28T01:44:07.597Z,5.95
2019-05-28T01:46:37.283Z,6.22
2019-05-28T01:49:07.174Z,5.40
2019-05-28T01:51:36.844Z,5.20
2019-05-28T01:54:06.546Z,5.78
2019-05-28T01:56:36.335Z,4.87
2019-05-28T01:59:06.148Z,5.50
2019-05-28T02:01:36.051Z,6.12
2019-05-28T02:04:06.017Z,5.70
2019-05-28T02:06:35.722Z,6.47
2019-05-28T02:09:06.921Z,5.03
2019-05-28T02:11:36.621Z,5.55
2019-05-28T02:14:06.435Z,5.83
2019-05-28T02:16:36.202Z,6.12
2019-05-28T02:19:05.989Z,6.05
2019-05-28T02:21:35.773Z,6.15
2019-05-28T02:24:05.528Z,7.22
2019-05-28T02:26:35.297Z,6.17
2019-05-28T02:29:05.111Z,6.37
2019-05-28T02:31:34.824Z,6.95
2019-05-28T02:34:04.529Z,5.60
2019-05-28T02:36:34.202Z,7.30
2019-05-28T02:39:05.423Z,6.90
2019-05-28T02:41:35.171Z,5.90
2019-05-28T02:44:05.084Z,6.83
2019-05-28T02:46:34.720Z,6.00
2019-05-28T02:49:05.000Z,6.35
2019-05-28T02:51:34.759Z,6.03
2019-05-28T02:54:05.451Z,5.85
2019-05-28T02:56:35.440Z,7.25
2019-05-28T02:59:05.464Z,7.10
2019-05-28T03:01:44.173Z,6.20
2019-05-28T03:04:10.920Z,6.37
2019-05-28T03:06:43.546Z,7.28
2019-05-28T03:09:13.309Z,7.45
2019-05-28T03:11:42.964Z,7.35
2019-05-28T03:14:12.654Z,7.05
2019-05-28T03:16:45.200Z,7.30
2019-05-28T03:19:14.850Z,8.65
2019-05-28T03:21:46.717Z,8.33
2019-05-28T03:24:17.893Z,6.30
2019-05-28T03:26:47.684Z,7.95
2019-05-28T03:29:17.363Z,7.67
2019-05-28T03:32:05.766Z,8.33
2019-05-28T03:34:19.318Z,8.53
2019-05-28T03:36:49.051Z,7.78
2019-05-28T03:39:18.951Z,8.90
2019-05-28T03:41:48.972Z,8.05
2019-05-28T03:44:18.597Z,9.65
2019-05-28T03:46:48.228Z,7.78
2019-05-28T03:49:17.884Z,7.10
2019-05-28T03:51:47.884Z,6.55
2019-05-28T03:54:17.598Z,9.23
2019-05-28T03:56:47.199Z,9.50
2019-05-28T03:59:17.027Z,7.00
2019-05-28T04:01:47.605Z,8.05
2019-05-28T04:04:17.287Z,9.35
2019-05-28T04:06:46.975Z,8.08
2019-05-28T04:09:16.655Z,9.50
2019-05-28T04:11:46.477Z,8.60
2019-05-28T04:14:16.221Z,8.55
2019-05-28T04:16:45.947Z,8.33
2019-05-28T04:19:15.544Z,8.65
2019-05-28T04:21:45.217Z,9.03
2019-05-28T04:24:14.804Z,8.63
2019-05-28T04:26:44.488Z,8.13
2019-05-28T04:29:14.205Z,10.10
2019-05-28T04:31:46.931Z,9.08
2019-05-28T04:34:18.312Z,9.58
2019-05-28T04:36:48.039Z,8.83
2019-05-28T04:39:17.828Z,10.13
2019-05-28T04:41:47.434Z,8.83
2019-05-28T04:44:17.191Z,9.93
2019-05-28T04:47:08.549Z,9.30
2019-05-28T04:49:37.656Z,11.18
2019-05-28T04:52:07.411Z,8.58
2019-05-28T04:54:37.511Z,8.90
2019-05-28T04:57:07.269Z,8.38
2019-05-28T04:59:37.107Z,10.63
2019-05-28T05:02:09.686Z,8.45
2019-05-28T05:04:39.339Z,10.03
2019-05-28T05:07:09.027Z,9.70
2019-05-28T05:09:38.657Z,8.73
2019-05-28T05:12:08.493Z,8.45
2019-05-28T05:14:38.123Z,7.65
2019-05-28T05:17:07.793Z,8.25
2019-05-28T05:19:37.497Z,11.55
2019-05-28T05:22:07.428Z,9.90
2019-05-28T05:24:37.326Z,10.72
2019-05-28T05:27:06.963Z,10.08
2019-05-28T05:29:36.619Z,10.35
2019-05-28T05:32:06.389Z,8.80
2019-05-28T05:34:36.017Z,11.35
2019-05-28T05:37:05.724Z,12.28
2019-05-28T05:39:35.434Z,11.93
2019-05-28T05:42:05.094Z,10.18
2019-05-28T05:44:34.841Z,12.85
2019-05-28T05:47:04.491Z,10.98
2019-05-28T05:49:34.232Z,10.85
2019-05-28T05:52:22.975Z,11.65
2019-05-28T05:54:54.124Z,11.00
2019-05-28T05:57:23.819Z,11.95
2019-05-28T05:59:53.590Z,11.75
2019-05-28T06:02:23.255Z,9.95
2019-05-28T06:04:52.970Z,11.40
2019-05-28T06:07:22.659Z,10.68
2019-05-28T06:09:52.406Z,12.33
2019-05-28T06:12:22.040Z,11.20
2019-05-28T06:14:51.819Z,10.45
2019-05-28T06:17:21.588Z,9.83
2019-05-28T06:19:51.416Z,8.40
2019-05-28T06:22:21.144Z,9.28
2019-05-28T06:24:50.992Z,10.30
2019-05-28T06:27:20.843Z,10.98
2019-05-28T06:29:50.654Z,10.10
2019-05-28T06:32:20.295Z,11.10
2019-05-28T06:34:50.001Z,12.28
2019-05-28T06:37:19.722Z,11.45
2019-05-28T06:39:49.441Z,11.50
2019-05-28T06:42:19.203Z,11.68
2019-05-28T06:44:48.895Z,11.78
2019-05-28T06:47:18.952Z,12.40
2019-05-28T06:49:48.834Z,13.48
2019-05-28T06:52:18.600Z,10.85
2019-05-28T06:54:48.400Z,11.25
2019-05-28T06:57:23.262Z,9.93
2019-05-28T06:59:51.962Z,12.33
2019-05-28T07:02:24.422Z,10.28
2019-05-28T07:04:54.205Z,10.65
2019-05-28T07:07:27.062Z,9.48
2019-05-28T07:09:56.815Z,10.68
2019-05-28T07:12:29.623Z,11.90
2019-05-28T07:15:02.993Z,10.82
2019-05-28T07:17:43.717Z,11.40
2019-05-28T07:20:14.298Z,11.90
2019-05-28T07:22:44.233Z,11.53
2019-05-28T07:25:14.949Z,13.13
2019-05-28T07:27:44.778Z,12.43
2019-05-28T07:30:14.855Z,13.30
2019-05-28T07:32:44.588Z,13.05
2019-05-28T07:35:14.908Z,12.10
2019-05-28T07:37:46.616Z,12.50
2019-05-28T07:40:31.288Z,12.53
2019-05-28T07:42:49.501Z,15.65
2019-05-28T07:45:19.669Z,14.30
2019-05-28T07:47:49.435Z,13.38
2019-05-28T07:50:19.296Z,12.73
2019-05-28T07:52:51.890Z,14.93
2019-05-28T07:55:24.297Z,13.03
2019-05-28T07:57:56.865Z,13.75
2019-05-28T08:00:40.716Z,13.55
2019-05-28T08:03:14.427Z,12.37
2019-05-28T08:05:44.228Z,13.90
2019-05-28T08:08:17.958Z,16.12
2019-05-28T08:10:47.746Z,16.20
2019-05-28T08:13:18.966Z,12.68
2019-05-28T08:15:48.737Z,15.15
2019-05-28T08:18:18.587Z,14.13
2019-05-28T08:20:48.409Z,14.18
2019-05-28T08:23:18.443Z,13.32
2019-05-28T08:25:48.394Z,13.50
2019-05-28T08:28:20.279Z,12.43
2019-05-28T08:30:49.895Z,10.82
2019-05-28T08:33:19.614Z,15.88
2019-05-28T08:35:51.615Z,12.20
2019-05-28T08:38:21.057Z,17.77
2019-05-28T08:40:52.233Z,17.32
2019-05-28T08:43:26.251Z,21.60
2019-05-28T08:45:56.088Z,16.27
2019-05-28T08:48:27.832Z,18.90
2019-05-28T08:50:59.669Z,14.28
2019-05-28T08:53:29.891Z,14.05
2019-05-28T08:56:00.152Z,12.65
2019-05-28T08:58:30.010Z,11.30
2019-05-28T09:01:03.214Z,12.58
2019-05-28T09:03:33.371Z,13.95
2019-05-28T09:06:06.914Z,12.93
2019-05-28T09:08:41.207Z,10.40
2019-05-28T09:11:13.796Z,9.95
2019-05-28T09:13:45.012Z,12.82
2019-05-28T09:16:14.821Z,12.45
2019-05-28T09:18:44.877Z,13.30
2019-05-28T09:21:17.946Z,13.78
2019-05-28T09:23:47.692Z,13.40
2019-05-28T09:26:17.317Z,14.20
2019-05-28T09:28:47.082Z,13.32
2019-05-28T09:31:16.772Z,13.20
2019-05-28T09:33:46.437Z,14.18
2019-05-28T09:36:16.061Z,14.53
2019-05-28T09:38:45.940Z,15.93
2019-05-28T09:41:17.599Z,15.00
2019-05-28T09:43:47.319Z,16.27
2019-05-28T09:46:17.122Z,25.77
2019-05-28T09:48:46.835Z,26.37
2019-05-28T09:51:16.540Z,16.37
2019-05-28T09:53:47.436Z,15.30
2019-05-28T09:56:17.299Z,15.28
2019-05-28T09:58:53.252Z,16.10
2019-05-28T10:01:23.170Z,16.52
2019-05-28T10:03:52.952Z,15.88
2019-05-28T10:06:36.354Z,15.70
2019-05-28T10:08:54.372Z,14.68
2019-05-28T10:11:24.393Z,15.43
2019-05-28T10:13:56.147Z,16.62
2019-05-28T10:16:34.220Z,15.28
2019-05-28T10:19:04.136Z,16.55
2019-05-28T10:21:34.152Z,15.78
2019-05-28T10:24:04.305Z,17.82
2019-05-28T10:26:34.142Z,17.37
2019-05-28T10:29:03.994Z,16.52
2019-05-28T10:31:33.721Z,16.52
2019-05-28T10:34:03.554Z,17.80
2019-05-28T10:36:36.597Z,15.00
2019-05-28T10:39:06.933Z,15.72
2019-05-28T10:41:36.637Z,12.53
2019-05-28T10:44:06.591Z,15.53
2019-05-28T10:46:36.397Z,15.20
2019-05-28T10:49:06.147Z,14.25
2019-05-28T10:51:35.901Z,16.62
2019-05-28T10:54:05.936Z,17.92
2019-05-28T10:56:35.732Z,13.60
2019-05-28T10:59:05.888Z,12.98
2019-05-28T11:01:35.590Z,14.05
2019-05-28T11:04:05.776Z,15.58
2019-05-28T11:06:50.879Z,61.28
2019-05-28T11:09:10.372Z,54.63
2019-05-28T11:11:40.088Z,68.40
2019-05-28T11:14:09.805Z,37.55
2019-05-28T11:16:39.562Z,26.77
2019-05-28T11:19:09.358Z,23.83
2019-05-28T11:21:39.095Z,20.20
2019-05-28T11:24:08.932Z,17.82
2019-05-28T11:26:40.995Z,14.58
2019-05-28T11:29:10.734Z,14.40
2019-05-28T11:31:40.473Z,15.75
2019-05-28T11:34:18.811Z,16.97
2019-05-28T11:36:48.460Z,18.25
2019-05-28T11:39:18.162Z,21.15
2019-05-28T11:41:47.881Z,19.73
2019-05-28T11:44:17.525Z,21.45
2019-05-28T11:46:47.244Z,21.40
2019-05-28T11:49:17.007Z,15.45
2019-05-28T11:51:48.402Z,15.98
2019-05-28T11:54:18.123Z,18.73
2019-05-28T11:57:06.996Z,15.85
2019-05-28T11:59:36.729Z,16.35
2019-05-28T12:02:06.518Z,14.63
2019-05-28T12:04:36.288Z,15.08
2019-05-28T12:07:06.093Z,16.75
2019-05-28T12:09:35.819Z,17.05
2019-05-28T12:12:17.067Z,18.60
2019-05-28T12:14:48.508Z,21.50
2019-05-28T12:17:18.253Z,20.43
2019-05-28T12:19:47.959Z,20.30
2019-05-28T12:22:17.724Z,21.33
2019-05-28T12:24:47.428Z,18.48
2019-05-28T12:27:17.115Z,19.48
2019-05-28T12:29:51.798Z,18.82
2019-05-28T12:32:18.400Z,20.37
2019-05-28T12:34:48.221Z,22.60
2019-05-28T12:37:17.989Z,21.60
2019-05-28T12:39:47.940Z,19.27
2019-05-28T12:42:18.134Z,23.60
2019-05-28T12:44:47.807Z,21.10
2019-05-28T12:47:17.441Z,24.52
2019-05-28T12:49:47.172Z,24.20
2019-05-28T12:52:19.083Z,23.75
2019-05-28T12:54:48.816Z,35.50
2019-05-28T12:57:18.685Z,30.60
2019-05-28T12:59:48.471Z,25.27
2019-05-28T13:02:21.231Z,22.77
2019-05-28T13:04:51.005Z,24.75
2019-05-28T13:07:20.648Z,24.75
2019-05-28T13:09:50.708Z,24.87
2019-05-28T13:12:20.943Z,13.83
2019-05-28T13:14:50.752Z,12.98
2019-05-28T13:17:20.437Z,13.70
2019-05-28T13:19:50.190Z,14.38
2019-05-28T13:22:19.932Z,13.18
2019-05-28T13:24:49.783Z,11.75
2019-05-28T13:27:22.984Z,13.30
2019-05-28T13:29:52.687Z,13.93
2019-05-28T13:32:31.541Z,14.38
2019-05-28T13:35:01.498Z,15.13
2019-05-28T13:37:33.544Z,15.18
2019-05-28T13:40:05.189Z,13.88
2019-05-28T13:42:34.923Z,13.15
2019-05-28T13:45:14.373Z,13.32
2019-05-28T13:47:44.081Z,12.93
2019-05-28T13:50:14.779Z,15.05
2019-05-28T13:52:44.474Z,14.73
2019-05-28T13:55:14.398Z,15.18
2019-05-28T13:57:44.111Z,15.72
2019-05-28T14:00:16.059Z,15.93
2019-05-28T14:02:46.718Z,15.78
2019-05-28T14:05:19.112Z,14.03
2019-05-28T14:07:48.879Z,13.78
2019-05-28T14:10:18.843Z,14.30
2019-05-28T14:12:48.767Z,14.00
2019-05-28T14:15:19.479Z,12.58
2019-05-28T14:17:49.379Z,12.93
2019-05-28T14:20:20.165Z,13.22
2019-05-28T14:22:50.274Z,13.25
2019-05-28T14:25:22.416Z,12.73
2019-05-28T14:27:52.160Z,12.40
2019-05-28T14:30:22.513Z,12.73
2019-05-28T14:32:58.726Z,12.43
2019-05-28T14:35:29.952Z,12.88
2019-05-28T14:38:01.985Z,12.43
2019-05-28T14:40:51.280Z,12.28
2019-05-28T14:43:21.862Z,11.90
2019-05-28T14:45:51.636Z,12.13
2019-05-28T14:48:21.407Z,12.70
2019-05-28T14:51:10.381Z,12.37
2019-05-28T14:53:40.357Z,12.35
2019-05-28T14:56:10.543Z,13.43
2019-05-28T14:58:40.195Z,12.80
2019-05-28T15:01:10.068Z,12.40
2019-05-28T15:03:40.913Z,12.03
2019-05-28T15:06:10.713Z,11.93
2019-05-28T15:08:52.236Z,12.15
2019-05-28T15:11:22.208Z,12.05
2019-05-28T15:13:51.971Z,10.90
2019-05-28T15:16:21.757Z,11.80
2019-05-28T15:18:51.768Z,11.65
2019-05-28T15:21:21.515Z,10.25
2019-05-28T15:23:52.787Z,12.18
2019-05-28T15:26:22.594Z,11.03
2019-05-28T15:28:52.763Z,11.48
2019-05-28T15:31:22.657Z,11.10
2019-05-28T15:33:52.448Z,10.85
2019-05-28T15:36:22.212Z,10.75
2019-05-28T15:38:51.967Z,10.20
2019-05-28T15:41:21.627Z,10.70
2019-05-28T15:43:51.438Z,10.32
2019-05-28T15:46:21.233Z,11.03
2019-05-28T15:48:50.983Z,10.73
2019-05-28T15:51:20.763Z,11.35
2019-05-28T15:53:50.603Z,10.80
2019-05-28T15:56:20.430Z,11.93
2019-05-28T15:58:50.103Z,10.75
2019-05-28T16:01:19.962Z,11.12
2019-05-28T16:03:49.755Z,12.17
2019-05-28T16:06:19.525Z,14.10
2019-05-28T16:08:49.410Z,11.03
2019-05-28T16:11:19.358Z,11.13
2019-05-28T16:13:58.664Z,10.73
2019-05-28T16:16:40.017Z,9.50
2019-05-28T16:19:09.801Z,8.83
2019-05-28T16:21:43.094Z,8.97
2019-05-28T16:24:14.265Z,7.70
2019-05-28T16:27:02.359Z,7.10
2019-05-28T16:29:32.227Z,7.27
2019-05-28T16:32:01.921Z,8.13
2019-05-28T16:34:31.662Z,7.93
2019-05-28T16:37:01.429Z,6.50
2019-05-28T16:39:31.112Z,5.83
2019-05-28T16:42:00.895Z,5.97
2019-05-28T16:44:30.654Z,5.67
2019-05-28T16:47:19.324Z,5.43
2019-05-28T16:49:49.204Z,5.70
2019-05-28T16:52:18.948Z,5.83
2019-05-28T16:54:48.616Z,6.37
2019-05-28T16:57:18.329Z,6.40
2019-05-28T16:59:48.224Z,7.17
2019-05-28T17:02:17.975Z,7.03
2019-05-28T17:04:47.744Z,6.93
2019-05-28T17:07:17.492Z,6.97
2019-05-28T17:09:47.192Z,7.60
2019-05-28T17:12:17.000Z,7.23
2019-05-28T17:14:46.793Z,6.87
2019-05-28T17:17:16.496Z,7.23
2019-05-28T17:19:46.272Z,6.40
2019-05-28T17:22:17.907Z,7.13
2019-05-28T17:24:47.699Z,5.70
2019-05-28T17:27:17.739Z,6.97
2019-05-28T17:29:50.583Z,6.27
2019-05-28T17:32:19.165Z,5.77
2019-05-28T17:34:51.379Z,5.73
2019-05-28T17:37:21.310Z,5.33
2019-05-28T17:39:51.212Z,5.97
2019-05-28T17:42:21.269Z,6.00
2019-05-28T17:44:51.016Z,6.67
2019-05-28T17:47:20.937Z,6.30
2019-05-28T17:49:53.764Z,7.30
2019-05-28T17:52:25.671Z,5.80
2019-05-28T17:54:55.445Z,5.80
2019-05-28T17:57:25.500Z,5.33
2019-05-28T17:59:55.232Z,6.03
2019-05-28T18:02:25.009Z,6.40
2019-05-28T18:04:54.669Z,6.23
2019-05-28T18:07:24.562Z,5.87
2019-05-28T18:09:54.293Z,5.73
2019-05-28T18:12:24.044Z,6.23
2019-05-28T18:14:53.800Z,6.23
2019-05-28T18:17:23.550Z,6.60
2019-05-28T18:19:53.272Z,7.53
2019-05-28T18:22:23.190Z,6.63
2019-05-28T18:24:53.144Z,6.17
2019-05-28T18:27:23.238Z,6.27
2019-05-28T18:29:53.040Z,6.07
2019-05-28T18:32:23.750Z,6.27
2019-05-28T18:34:53.473Z,5.87
2019-05-28T18:37:23.310Z,6.03
2019-05-28T18:39:53.069Z,6.33
2019-05-28T18:42:22.711Z,5.37
2019-05-28T18:44:52.545Z,5.50
2019-05-28T18:47:22.403Z,5.17
2019-05-28T18:49:52.281Z,5.23
2019-05-28T18:52:21.994Z,4.77
2019-05-28T18:54:51.830Z,5.37
2019-05-28T18:57:40.586Z,4.30
2019-05-28T19:00:10.909Z,5.07
2019-05-28T19:02:40.729Z,4.80
2019-05-28T19:05:30.887Z,4.40
2019-05-28T19:08:00.640Z,4.37
2019-05-28T19:10:38.221Z,4.37
2019-05-28T19:13:27.189Z,5.07
2019-05-28T19:15:57.016Z,4.87
2019-05-28T19:18:28.326Z,4.77
2019-05-28T19:21:17.139Z,4.37
2019-05-28T19:23:47.049Z,4.77
2019-05-28T19:26:16.790Z,4.67
2019-05-28T19:28:46.602Z,4.80
2019-05-28T19:31:16.314Z,4.77
2019-05-28T19:33:46.121Z,5.00
2019-05-28T19:36:17.665Z,4.67
2019-05-28T19:39:07.054Z,4.83
2019-05-28T19:41:50.398Z,4.57
2019-05-28T19:44:08.496Z,4.40
2019-05-28T19:46:38.370Z,5.03
2019-05-28T19:49:08.111Z,4.50
2019-05-28T19:51:37.925Z,4.47
2019-05-28T19:54:08.259Z,3.90
2019-05-28T19:56:38.225Z,4.50
2019-05-28T19:59:07.904Z,4.27
2019-05-28T20:01:37.647Z,4.37
2019-05-28T20:04:07.489Z,4.50
2019-05-28T20:06:43.106Z,3.80
2019-05-28T20:09:12.919Z,5.07
2019-05-28T20:11:42.655Z,4.53
2019-05-28T20:14:12.646Z,4.70
2019-05-28T20:17:01.607Z,4.40
2019-05-28T20:19:31.446Z,4.60
2019-05-28T20:22:01.766Z,5.07
2019-05-28T20:24:31.674Z,5.00
2019-05-28T20:27:01.550Z,5.00
2019-05-28T20:29:50.415Z,4.50
2019-05-28T20:32:21.376Z,5.27
2019-05-28T20:34:51.306Z,5.53
2019-05-28T20:37:22.544Z,5.43
2019-05-28T20:39:52.447Z,5.60
2019-05-28T20:42:27.266Z,5.83
2019-05-28T20:44:53.868Z,5.63
2019-05-28T20:47:23.726Z,5.00
2019-05-28T20:49:56.810Z,5.03
2019-05-28T20:52:26.584Z,5.40
2019-05-28T20:54:57.263Z,5.73
2019-05-28T20:57:27.004Z,5.57
2019-05-28T21:00:04.230Z,5.53
2019-05-28T21:02:34.012Z,5.27
2019-05-28T21:05:03.759Z,5.43
2019-05-28T21:07:33.444Z,5.47
2019-05-28T21:10:04.344Z,6.27
2019-05-28T21:12:43.262Z,5.80
2019-05-28T21:15:06.637Z,6.20
2019-05-28T21:17:36.455Z,5.73
2019-05-28T21:20:06.973Z,5.67
2019-05-28T21:22:37.078Z,6.17
2019-05-28T21:25:07.680Z,6.20
2019-05-28T21:27:37.406Z,6.00
2019-05-28T21:30:07.696Z,6.10
2019-05-28T21:32:37.463Z,6.03
2019-05-28T21:35:07.640Z,5.93
2019-05-28T21:37:37.325Z,5.50
2019-05-28T21:40:07.274Z,5.83
2019-05-28T21:42:36.958Z,5.87
2019-05-28T21:45:08.429Z,5.50
2019-05-28T21:47:38.137Z,6.10
2019-05-28T21:50:09.517Z,5.67
2019-05-28T21:52:39.502Z,5.70
2019-05-28T21:55:09.726Z,6.00
2019-05-28T21:57:40.884Z,5.57
2019-05-28T22:00:16.396Z,6.27
2019-05-28T22:02:46.177Z,6.00
2019-05-28T22:05:16.086Z,6.10
2019-05-28T22:07:46.016Z,5.00
2019-05-28T22:10:34.822Z,5.43
2019-05-28T22:13:18.514Z,5.10
2019-05-28T22:15:36.145Z,5.13
2019-05-28T22:18:06.015Z,5.00
2019-05-28T22:20:35.726Z,5.33
2019-05-28T22:23:05.457Z,5.33
2019-05-28T22:25:35.277Z,5.20
2019-05-28T22:28:05.054Z,5.13
2019-05-28T22:30:34.754Z,5.23
2019-05-28T22:33:04.518Z,4.90
2019-05-28T22:35:34.490Z,4.63
2019-05-28T22:38:05.349Z,5.20
2019-05-28T22:40:35.098Z,4.73
2019-05-28T22:43:05.174Z,5.37
2019-05-28T22:45:39.944Z,5.00
2019-05-28T22:48:13.546Z,4.80
2019-05-28T22:50:37.662Z,4.93
2019-05-28T22:53:08.167Z,4.67
2019-05-28T22:55:38.002Z,4.77
2019-05-28T22:58:08.560Z,5.07
2019-05-28T23:00:38.400Z,4.43
2019-05-28T23:03:09.092Z,5.00
2019-05-28T23:05:39.100Z,5.00
2019-05-28T23:08:09.906Z,5.60
2019-05-28T23:10:39.833Z,4.60
2019-05-28T23:13:09.538Z,4.93
2019-05-28T23:15:39.126Z,4.90
2019-05-28T23:18:09.286Z,4.57
2019-05-28T23:20:39.468Z,4.70
2019-05-28T23:23:09.407Z,5.30
2019-05-28T23:25:39.298Z,4.87
2019-05-28T23:28:09.809Z,5.50
2019-05-28T23:30:39.617Z,4.90
2019-05-28T23:33:12.312Z,4.77
2019-05-28T23:35:40.632Z,4.30
2019-05-28T23:38:11.198Z,4.20
2019-05-28T23:40:40.980Z,4.37
2019-05-28T23:43:11.520Z,3.90
2019-05-28T23:45:41.288Z,3.23
2019-05-28T23:48:14.164Z,4.30
2019-05-28T23:50:42.203Z,4.13
2019-05-28T23:53:11.850Z,3.50
2019-05-28T23:55:51.823Z,4.13
2019-05-28T23:58:21.440Z,4.00
